Time;durP1;ratioP1;P1;durP2;ratioP2;P2;SDS_P1;SDS_P2;PMS_P1;PMS_P2;Temp;Humidity;BMP_temperature;BMP_pressure;BME280_temperature;BME280_humidity;BME280_pressure;Samples;Min_cycle;Max_cycle;Signal;HPM_P1;HPM_P2
2023/04/28 00:00:19;;;;;;;11.63;9.15;;;12.10;60.00;;;;;;2093922;28;20481;-72
2023/04/28 00:01:20;;;;;;;15.77;9.13;;;12.10;60.20;;;;;;2090736;28;20082;-72
2023/04/28 00:02:21;;;;;;;10.57;8.50;;;12.10;60.00;;;;;;2093153;28;20035;-72
2023/04/28 00:03:21;;;;;;;10.85;8.38;;;12.10;60.00;;;;;;2091687;28;20020;-72
2023/04/28 00:04:22;;;;;;;13.85;8.82;;;12.10;60.20;;;;;;2092771;28;20082;-72
2023/04/28 00:05:23;;;;;;;14.57;8.32;;;12.10;60.20;;;;;;2093829;28;20123;-72
2023/04/28 00:06:24;;;;;;;11.48;8.80;;;12.10;60.10;;;;;;2091404;28;20025;-72
2023/04/28 00:07:25;;;;;;;14.98;9.45;;;12.10;60.10;;;;;;2092083;28;20119;-72
2023/04/28 00:08:26;;;;;;;11.43;8.70;;;12.10;60.80;;;;;;2093290;28;20136;-72
2023/04/28 00:09:26;;;;;;;11.02;8.98;;;12.10;61.20;;;;;;2092633;28;20036;-72
2023/04/28 00:10:27;;;;;;;11.38;8.70;;;12.10;61.30;;;;;;2091285;28;20111;-72
2023/04/28 00:11:27;;;;;;;11.57;9.00;;;12.10;61.30;;;;;;2093157;28;20028;-72
2023/04/28 00:12:28;;;;;;;13.75;8.57;;;12.10;61.10;;;;;;2091378;28;20110;-72
2023/04/28 00:13:28;;;;;;;9.02;7.93;;;12.10;60.90;;;;;;2091800;28;20064;-72
2023/04/28 00:14:29;;;;;;;10.90;9.05;;;12.10;60.80;;;;;;2090474;28;20392;-72
2023/04/28 00:15:29;;;;;;;12.32;9.23;;;12.10;60.80;;;;;;2091985;28;20058;-72
2023/04/28 00:16:30;;;;;;;12.77;8.70;;;12.20;61.10;;;;;;2092321;28;20040;-72
2023/04/28 00:17:30;;;;;;;13.02;8.85;;;12.10;61.00;;;;;;2093497;28;20099;-72
2023/04/28 00:18:32;;;;;;;14.82;8.95;;;12.20;61.10;;;;;;2092724;28;20027;-72
2023/04/28 00:19:33;;;;;;;12.65;8.55;;;12.10;61.20;;;;;;2091346;28;20052;-72
2023/04/28 00:20:34;;;;;;;11.27;8.50;;;12.20;61.40;;;;;;2093282;28;20129;-72
2023/04/28 00:21:34;;;;;;;11.80;8.27;;;12.20;61.20;;;;;;2095007;28;20023;-72
2023/04/28 00:22:35;;;;;;;11.80;8.65;;;12.20;61.10;;;;;;2094425;28;20507;-72
2023/04/28 00:23:35;;;;;;;11.82;8.32;;;12.20;61.40;;;;;;2092461;28;20459;-72
2023/04/28 00:24:36;;;;;;;11.40;8.88;;;12.20;61.70;;;;;;2090093;28;20074;-72
2023/04/28 00:25:36;;;;;;;10.23;7.85;;;12.20;62.10;;;;;;2091319;28;20021;-72
2023/04/28 00:26:37;;;;;;;11.40;8.85;;;12.20;62.10;;;;;;2092083;28;20029;-72
2023/04/28 00:27:37;;;;;;;12.25;9.93;;;12.20;62.40;;;;;;2090519;28;20059;-72
2023/04/28 00:28:38;;;;;;;11.45;9.15;;;12.20;63.00;;;;;;2094665;28;20066;-72
2023/04/28 00:29:38;;;;;;;13.50;8.93;;;12.20;63.40;;;;;;2091544;28;20028;-72
2023/04/28 00:30:39;;;;;;;11.73;8.63;;;12.20;63.20;;;;;;2093612;28;20052;-72
2023/04/28 00:31:39;;;;;;;14.05;8.82;;;12.20;62.90;;;;;;2093884;28;20032;-72
2023/04/28 00:32:40;;;;;;;13.80;9.45;;;12.20;63.10;;;;;;2094482;28;20019;-73
2023/04/28 00:33:42;;;;;;;12.65;9.05;;;12.20;63.90;;;;;;2091658;28;20039;-72
2023/04/28 00:34:42;;;;;;;12.60;9.43;;;12.20;63.10;;;;;;2092999;28;20027;-72
2023/04/28 00:35:43;;;;;;;11.98;8.63;;;12.20;63.50;;;;;;2095159;28;20024;-72
2023/04/28 00:36:43;;;;;;;13.18;8.77;;;12.20;63.40;;;;;;2092359;28;20026;-72
2023/04/28 00:37:44;;;;;;;11.55;8.98;;;12.20;63.60;;;;;;2090593;28;20417;-72
2023/04/28 00:38:44;;;;;;;13.30;8.90;;;12.20;64.10;;;;;;2092525;28;20025;-72
2023/04/28 00:39:48;;;;;;;12.43;8.45;;;12.20;64.70;;;;;;2091500;28;20041;-72
2023/04/28 00:40:48;;;;;;;16.02;9.43;;;12.20;65.00;;;;;;2091402;28;20057;-73
2023/04/28 00:41:49;;;;;;;9.82;8.75;;;12.20;64.90;;;;;;2093815;28;20035;-72
2023/04/28 00:42:49;;;;;;;10.77;9.55;;;12.20;64.90;;;;;;2093482;28;20519;-72
2023/04/28 00:43:50;;;;;;;12.55;9.20;;;12.20;65.40;;;;;;2092238;28;20032;-73
2023/04/28 00:44:50;;;;;;;10.85;9.32;;;12.20;65.80;;;;;;2091549;28;20032;-72
2023/04/28 00:45:51;;;;;;;13.60;8.88;;;12.20;65.30;;;;;;2092281;28;20029;-72
2023/04/28 00:46:52;;;;;;;10.45;9.27;;;12.20;65.50;;;;;;2092396;28;20039;-72
2023/04/28 00:47:54;;;;;;;13.20;9.23;;;12.20;65.80;;;;;;2091714;28;20087;-72
2023/04/28 00:48:55;;;;;;;10.75;8.85;;;12.20;66.60;;;;;;2091490;28;20179;-72
2023/04/28 00:49:55;;;;;;;10.10;8.18;;;12.20;66.70;;;;;;2090937;28;20029;-72
2023/04/28 00:50:56;;;;;;;13.05;8.90;;;12.20;66.60;;;;;;2092407;28;20057;-73
2023/04/28 00:52:02;;;;;;;13.27;7.97;;;12.20;66.80;;;;;;2093932;28;20737;-73
2023/04/28 00:53:03;;;;;;;13.57;8.45;;;12.20;66.70;;;;;;2092989;28;20574;-73
2023/04/28 00:54:05;;;;;;;12.73;8.90;;;12.20;67.30;;;;;;2093706;28;20448;-73
2023/04/28 00:55:08;;;;;;;10.98;9.75;;;12.20;68.60;;;;;;2092986;28;20024;-73
2023/04/28 00:56:09;;;;;;;14.18;9.50;;;12.20;69.40;;;;;;2090635;28;20028;-73
2023/04/28 00:57:09;;;;;;;10.98;8.65;;;12.20;69.70;;;;;;2092199;28;20062;-73
2023/04/28 00:58:10;;;;;;;12.02;8.00;;;12.20;70.00;;;;;;2092647;28;20594;-73
2023/04/28 00:59:10;;;;;;;15.82;9.98;;;12.20;70.50;;;;;;2092743;28;20048;-72
2023/04/28 01:00:13;;;;;;;12.80;10.30;;;12.20;71.20;;;;;;2091848;28;20032;-73
2023/04/28 01:01:14;;;;;;;11.70;9.93;;;12.20;71.40;;;;;;2092440;28;20922;-73
2023/04/28 01:02:17;;;;;;;19.52;10.18;;;12.20;71.30;;;;;;2093672;28;20467;-73
2023/04/28 01:03:17;;;;;;;12.98;9.82;;;12.20;71.40;;;;;;2093192;28;20021;-73
2023/04/28 01:04:19;;;;;;;13.32;10.40;;;12.10;71.70;;;;;;2093138;28;20471;-72
2023/04/28 01:05:21;;;;;;;11.07;9.70;;;12.10;71.90;;;;;;2093315;28;20028;-73
2023/04/28 01:06:21;;;;;;;10.27;9.27;;;12.10;72.10;;;;;;2093454;28;20024;-72
2023/04/28 01:07:22;;;;;;;13.77;10.57;;;12.10;72.80;;;;;;2091259;28;20112;-72
2023/04/28 01:08:27;;;;;;;11.77;9.75;;;12.10;73.00;;;;;;2093293;28;20496;-73
2023/04/28 01:09:27;;;;;;;13.85;10.02;;;12.10;73.20;;;;;;2092768;28;20062;-73
2023/04/28 01:10:28;;;;;;;12.90;9.25;;;12.10;73.30;;;;;;2092119;28;20032;-72
2023/04/28 01:11:28;;;;;;;17.40;10.95;;;12.00;73.10;;;;;;2094414;28;20029;-72
2023/04/28 01:12:29;;;;;;;11.70;9.10;;;12.00;73.40;;;;;;2093106;28;20111;-72
2023/04/28 01:13:30;;;;;;;11.90;9.18;;;12.10;74.50;;;;;;2090869;28;20033;-72
2023/04/28 01:14:32;;;;;;;9.70;8.27;;;12.00;74.60;;;;;;2093161;28;20032;-73
2023/04/28 01:15:32;;;;;;;12.73;9.48;;;12.00;74.50;;;;;;2093348;28;20020;-72
2023/04/28 01:16:34;;;;;;;9.98;8.48;;;12.00;75.40;;;;;;2090819;28;20061;-72
2023/04/28 01:17:34;;;;;;;15.07;8.95;;;12.00;74.70;;;;;;2091772;28;20066;-72
2023/04/28 01:18:35;;;;;;;9.45;8.27;;;12.00;74.90;;;;;;2091981;28;20051;-72
2023/04/28 01:19:36;;;;;;;13.27;10.02;;;12.00;75.30;;;;;;2093639;28;20025;-72
2023/04/28 01:20:36;;;;;;;14.55;8.00;;;12.00;76.40;;;;;;2092056;28;20029;-72
2023/04/28 01:21:37;;;;;;;10.68;8.88;;;12.00;76.30;;;;;;2090919;28;20027;-72
2023/04/28 01:22:37;;;;;;;12.75;9.70;;;12.00;76.60;;;;;;2093349;28;20029;-73
2023/04/28 01:23:38;;;;;;;14.07;10.43;;;12.00;77.10;;;;;;2091430;28;20156;-73
2023/04/28 01:24:39;;;;;;;15.00;10.48;;;12.00;77.60;;;;;;2089902;28;20029;-73
2023/04/28 01:25:40;;;;;;;13.02;9.80;;;12.00;78.50;;;;;;2090894;28;20507;-72
2023/04/28 01:26:40;;;;;;;12.10;9.38;;;12.00;78.50;;;;;;2090760;28;20025;-72
2023/04/28 01:27:41;;;;;;;11.85;10.48;;;12.00;78.70;;;;;;2091767;28;20032;-72
2023/04/28 01:28:42;;;;;;;12.25;8.82;;;12.00;79.60;;;;;;2092378;28;20481;-73
2023/04/28 01:29:42;;;;;;;11.55;9.68;;;12.00;79.20;;;;;;2092167;28;20692;-73
2023/04/28 01:30:43;;;;;;;10.93;8.88;;;12.00;80.10;;;;;;2091856;28;20031;-73
2023/04/28 01:31:43;;;;;;;15.32;10.60;;;12.00;80.60;;;;;;2089974;28;20055;-73
2023/04/28 01:32:44;;;;;;;13.85;10.38;;;12.00;81.40;;;;;;2090776;28;20033;-73
2023/04/28 01:33:44;;;;;;;12.80;11.30;;;12.00;83.30;;;;;;2091398;28;20631;-73
2023/04/28 01:34:46;;;;;;;15.82;11.65;;;12.00;85.00;;;;;;2092315;28;20635;-73
2023/04/28 01:35:46;;;;;;;12.95;10.57;;;11.90;86.70;;;;;;2093684;28;20469;-73
2023/04/28 01:36:47;;;;;;;13.75;10.20;;;12.00;87.20;;;;;;2094290;28;20020;-73
2023/04/28 01:37:48;;;;;;;11.65;10.25;;;11.90;87.60;;;;;;2092151;28;20016;-73
2023/04/28 01:38:49;;;;;;;16.05;11.73;;;11.90;88.90;;;;;;2100458;28;20023;-72
2023/04/28 01:39:49;;;;;;;15.23;9.48;;;11.90;90.00;;;;;;2099180;28;20035;-73
2023/04/28 01:40:50;;;;;;;13.52;10.30;;;11.90;90.30;;;;;;2091780;28;20035;-73
2023/04/28 01:41:50;;;;;;;11.82;9.32;;;11.90;90.60;;;;;;2094068;28;20033;-72
2023/04/28 01:42:51;;;;;;;18.58;12.05;;;11.90;90.50;;;;;;2089710;28;20040;-72
2023/04/28 01:43:51;;;;;;;13.40;11.68;;;11.90;91.30;;;;;;2092815;28;20063;-73
2023/04/28 01:44:52;;;;;;;11.50;9.50;;;11.90;91.70;;;;;;2092676;28;20029;-73
2023/04/28 01:45:52;;;;;;;15.40;11.23;;;11.90;91.60;;;;;;2090273;28;20028;-72
2023/04/28 01:46:53;;;;;;;13.00;10.10;;;11.90;92.10;;;;;;2091982;28;20081;-73
2023/04/28 01:47:54;;;;;;;13.05;9.73;;;11.90;91.90;;;;;;2084204;28;20036;-73
2023/04/28 01:48:55;;;;;;;12.90;9.95;;;11.80;91.90;;;;;;2093122;28;20021;-72
2023/04/28 01:49:55;;;;;;;15.60;10.52;;;11.80;92.50;;;;;;2090503;28;20040;-72
2023/04/28 01:50:56;;;;;;;11.90;9.73;;;11.90;93.20;;;;;;2092756;28;20029;-72
2023/04/28 01:51:56;;;;;;;13.70;10.40;;;11.80;93.60;;;;;;2092873;28;20503;-72
2023/04/28 01:52:57;;;;;;;12.23;10.02;;;11.80;93.90;;;;;;2091663;28;20154;-73
2023/04/28 01:54:00;;;;;;;12.07;10.63;;;11.80;94.80;;;;;;2092138;28;20397;-72
2023/04/28 01:55:00;;;;;;;15.00;11.20;;;11.80;95.40;;;;;;2088678;28;20016;-72
2023/04/28 01:56:01;;;;;;;12.20;9.48;;;11.80;95.80;;;;;;2094442;28;20041;-72
2023/04/28 01:57:02;;;;;;;11.55;10.20;;;11.80;95.90;;;;;;2091611;28;20024;-73
2023/04/28 01:58:02;;;;;;;11.43;9.90;;;11.80;95.60;;;;;;2091208;28;20048;-73
2023/04/28 01:59:04;;;;;;;11.52;9.85;;;11.80;96.30;;;;;;2092260;28;20037;-73
2023/04/28 02:00:06;;;;;;;14.48;10.43;;;11.80;97.20;;;;;;2092371;28;20520;-73
2023/04/28 02:01:10;;;;;;;14.35;10.75;;;11.80;97.40;;;;;;2083840;28;20025;-73
2023/04/28 02:02:11;;;;;;;10.38;8.85;;;11.80;98.00;;;;;;2092458;28;20024;-73
2023/04/28 02:03:14;;;;;;;14.15;11.18;;;11.70;98.00;;;;;;2093741;28;20020;-73
2023/04/28 02:04:17;;;;;;;13.13;10.27;;;11.80;99.20;;;;;;2092318;28;20032;-73
2023/04/28 02:05:18;;;;;;;14.15;9.85;;;11.80;99.90;;;;;;2090969;28;20029;-73
2023/04/28 02:06:18;;;;;;;12.63;10.45;;;11.80;99.90;;;;;;2092583;28;20075;-73
2023/04/28 02:07:19;;;;;;;13.00;9.77;;;11.80;99.90;;;;;;2093360;28;20032;-72
2023/04/28 02:08:19;;;;;;;13.55;10.73;;;11.70;99.90;;;;;;2093553;28;20079;-72
2023/04/28 02:09:20;;;;;;;12.57;11.27;;;11.70;99.90;;;;;;2091724;28;20024;-73
2023/04/28 02:10:21;;;;;;;16.13;10.60;;;11.70;99.90;;;;;;2091636;28;20207;-73
2023/04/28 02:11:24;;;;;;;15.80;11.70;;;11.70;99.90;;;;;;2091827;28;20107;-73
2023/04/28 02:12:24;;;;;;;14.25;11.40;;;11.70;99.90;;;;;;2084398;28;20028;-72
2023/04/28 02:13:25;;;;;;;13.27;10.95;;;11.70;99.90;;;;;;2084570;28;20043;-73
2023/04/28 02:14:25;;;;;;;18.55;11.88;;;11.70;99.90;;;;;;2092375;28;20028;-72
2023/04/28 02:15:26;;;;;;;14.05;10.45;;;11.70;99.90;;;;;;2094529;28;20152;-73
2023/04/28 02:16:27;;;;;;;15.95;11.93;;;11.70;99.90;;;;;;2093527;28;20505;-72
2023/04/28 02:17:30;;;;;;;18.75;12.50;;;11.70;99.90;;;;;;2091406;28;20067;-73
2023/04/28 02:18:31;;;;;;;17.80;13.13;;;11.70;99.90;;;;;;2093503;28;20021;-72
2023/04/28 02:19:34;;;;;;;14.93;12.88;;;11.70;99.90;;;;;;2091740;28;20031;-73
2023/04/28 02:20:35;;;;;;;17.45;13.00;;;11.70;99.90;;;;;;2092814;28;20036;-73
2023/04/28 02:21:35;;;;;;;18.15;12.88;;;11.60;99.90;;;;;;2091445;28;20108;-73
2023/04/28 02:22:36;;;;;;;15.68;12.77;;;11.60;99.90;;;;;;2093531;28;20051;-73
2023/04/28 02:23:37;;;;;;;15.32;13.20;;;11.60;99.90;;;;;;2093361;28;20079;-73
2023/04/28 02:24:40;;;;;;;18.73;12.82;;;11.60;99.90;;;;;;2092354;28;20020;-73
2023/04/28 02:25:41;;;;;;;13.90;12.48;;;11.60;99.90;;;;;;2091843;28;20063;-73
2023/04/28 02:26:49;;;;;;;16.08;13.00;;;11.60;99.90;;;;;;2091130;28;20045;-73
2023/04/28 02:27:50;;;;;;;15.05;12.52;;;11.50;99.90;;;;;;2092445;28;20028;-73
2023/04/28 02:28:51;;;;;;;14.45;11.15;;;11.50;99.90;;;;;;2091169;28;20124;-73
2023/04/28 02:29:51;;;;;;;14.73;10.38;;;11.50;99.90;;;;;;2094144;28;20079;-72
2023/04/28 02:31:02;;;;;;;15.18;11.85;;;11.50;99.90;;;;;;2092716;28;20028;-72
2023/04/28 02:32:03;;;;;;;14.35;11.60;;;11.50;99.90;;;;;;2092121;28;20043;-72
2023/04/28 02:33:04;;;;;;;17.83;12.45;;;11.50;99.90;;;;;;2094554;28;20021;-73
2023/04/28 02:34:04;;;;;;;11.32;10.13;;;11.50;99.90;;;;;;2094166;28;20031;-73
2023/04/28 02:35:05;;;;;;;15.93;10.93;;;11.50;99.90;;;;;;2091868;28;20028;-73
2023/04/28 02:36:06;;;;;;;15.98;10.52;;;11.50;99.90;;;;;;2092904;28;20111;-72
2023/04/28 02:37:07;;;;;;;14.63;11.80;;;11.50;99.90;;;;;;2093918;28;20040;-72
2023/04/28 02:38:07;;;;;;;12.60;9.98;;;11.50;99.90;;;;;;2094271;28;20029;-73
2023/04/28 02:39:08;;;;;;;12.57;9.73;;;11.50;99.90;;;;;;2096434;28;20031;-73
2023/04/28 02:40:09;;;;;;;18.20;12.77;;;11.50;99.90;;;;;;2094753;28;20145;-73
2023/04/28 02:41:10;;;;;;;14.02;11.38;;;11.50;99.90;;;;;;2094472;28;20028;-72
2023/04/28 02:42:10;;;;;;;16.23;11.05;;;11.40;99.90;;;;;;2094120;28;20025;-72
2023/04/28 02:43:11;;;;;;;18.15;11.90;;;11.50;99.90;;;;;;2093516;28;20554;-73
2023/04/28 02:44:11;;;;;;;12.25;8.43;;;11.50;99.90;;;;;;2091573;28;20522;-73
2023/04/28 02:45:12;;;;;;;13.52;10.20;;;11.50;99.90;;;;;;2090865;28;20418;-72
2023/04/28 02:46:12;;;;;;;11.32;9.95;;;11.50;99.90;;;;;;2092808;28;20025;-72
2023/04/28 02:47:13;;;;;;;13.77;10.27;;;11.40;99.90;;;;;;2092888;28;20060;-72
2023/04/28 02:48:13;;;;;;;15.07;12.73;;;11.50;99.90;;;;;;2092317;28;20036;-72
2023/04/28 02:49:15;;;;;;;15.68;11.50;;;11.40;99.90;;;;;;2091573;28;20048;-72
2023/04/28 02:50:15;;;;;;;17.75;11.77;;;11.50;99.90;;;;;;2091035;28;20028;-72
2023/04/28 02:51:16;;;;;;;12.02;10.52;;;11.50;99.90;;;;;;2091462;28;20021;-72
2023/04/28 02:52:16;;;;;;;15.02;12.27;;;11.50;99.90;;;;;;2091349;28;20024;-72
2023/04/28 02:53:17;;;;;;;11.75;9.30;;;11.50;99.90;;;;;;2094453;28;20036;-72
2023/04/28 02:54:26;;;;;;;13.68;11.43;;;11.40;99.90;;;;;;2090948;28;20090;-72
2023/04/28 02:55:26;;;;;;;15.25;11.27;;;11.40;99.90;;;;;;2092459;28;20122;-72
2023/04/28 02:56:28;;;;;;;19.90;11.65;;;11.50;99.90;;;;;;2090949;28;20094;-73
2023/04/28 02:57:29;;;;;;;13.55;10.30;;;11.40;99.90;;;;;;2091273;28;20388;-72
2023/04/28 02:58:30;;;;;;;13.00;11.07;;;11.50;99.90;;;;;;2092073;28;20041;-72
2023/04/28 02:59:30;;;;;;;13.00;11.70;;;11.50;99.90;;;;;;2093295;28;20025;-72
2023/04/28 03:00:31;;;;;;;17.10;13.00;;;11.50;99.90;;;;;;2092739;28;20066;-72
2023/04/28 03:01:32;;;;;;;16.85;13.95;;;11.50;99.90;;;;;;2086286;28;20563;-72
2023/04/28 03:02:32;;;;;;;15.43;13.32;;;11.50;99.90;;;;;;2085627;28;20032;-72
2023/04/28 03:03:33;;;;;;;14.63;13.13;;;11.40;99.90;;;;;;2094477;28;20107;-72
2023/04/28 03:04:33;;;;;;;15.05;11.52;;;11.50;99.90;;;;;;2094772;28;20035;-72
2023/04/28 03:05:34;;;;;;;14.30;10.25;;;11.50;99.90;;;;;;2091814;28;20052;-72
2023/04/28 03:06:35;;;;;;;17.67;12.32;;;11.40;99.90;;;;;;2094735;28;20035;-72
2023/04/28 03:07:36;;;;;;;16.08;12.77;;;11.50;99.90;;;;;;2094931;28;20028;-72
2023/04/28 03:08:36;;;;;;;15.32;12.80;;;11.50;99.90;;;;;;2093718;28;20024;-72
2023/04/28 03:09:37;;;;;;;15.38;13.32;;;11.50;99.90;;;;;;2092527;28;20028;-72
2023/04/28 03:10:37;;;;;;;16.40;13.18;;;11.40;99.90;;;;;;2093180;28;20028;-72
2023/04/28 03:11:38;;;;;;;17.83;13.65;;;11.40;99.90;;;;;;2097406;28;20020;-72
2023/04/28 03:12:38;;;;;;;17.20;12.20;;;11.50;99.90;;;;;;2095291;28;20115;-72
2023/04/28 03:13:39;;;;;;;17.08;13.55;;;11.40;99.90;;;;;;2094820;28;20028;-72
2023/04/28 03:14:40;;;;;;;17.25;13.85;;;11.40;99.90;;;;;;2093184;28;20063;-72
2023/04/28 03:15:40;;;;;;;13.93;12.43;;;11.40;99.90;;;;;;2092953;28;20550;-72
2023/04/28 03:16:41;;;;;;;15.35;13.02;;;11.40;99.90;;;;;;2093933;28;20036;-72
2023/04/28 03:17:42;;;;;;;16.42;13.85;;;11.40;99.90;;;;;;2091200;28;20032;-72
2023/04/28 03:18:43;;;;;;;18.52;15.05;;;11.40;99.90;;;;;;2091778;28;20035;-72
2023/04/28 03:19:43;;;;;;;17.77;14.18;;;11.40;99.90;;;;;;2095322;28;20039;-72
2023/04/28 03:20:44;;;;;;;15.32;12.65;;;11.40;99.90;;;;;;2092438;28;20422;-72
2023/04/28 03:21:45;;;;;;;18.60;12.57;;;11.40;99.90;;;;;;2092572;28;20422;-73
2023/04/28 03:22:45;;;;;;;18.92;13.82;;;11.40;99.90;;;;;;2092563;28;20021;-73
2023/04/28 03:23:46;;;;;;;17.98;14.93;;;11.40;99.90;;;;;;2093807;28;20484;-72
2023/04/28 03:24:46;;;;;;;20.70;14.73;;;11.40;99.90;;;;;;2092609;28;20403;-72
2023/04/28 03:25:47;;;;;;;17.13;14.00;;;11.40;99.90;;;;;;2091818;28;20079;-72
2023/04/28 03:26:47;;;;;;;16.50;12.63;;;11.40;99.90;;;;;;2090477;28;20365;-72
2023/04/28 03:27:48;;;;;;;17.08;13.13;;;11.40;99.90;;;;;;2091999;28;20035;-72
2023/04/28 03:28:48;;;;;;;17.65;14.30;;;11.40;99.90;;;;;;2091715;28;20107;-73
2023/04/28 03:29:49;;;;;;;13.35;11.07;;;11.40;99.90;;;;;;2089011;28;20245;-73
2023/04/28 03:30:49;;;;;;;16.45;12.40;;;11.40;99.90;;;;;;2090559;28;20142;-72
2023/04/28 03:31:50;;;;;;;16.58;12.73;;;11.40;99.90;;;;;;2094304;28;20487;-73
2023/04/28 03:32:51;;;;;;;17.27;14.13;;;11.40;99.90;;;;;;2092746;28;20039;-73
2023/04/28 03:33:51;;;;;;;13.25;10.98;;;11.40;99.90;;;;;;2094095;28;20023;-73
2023/04/28 03:34:52;;;;;;;14.18;11.27;;;11.40;99.90;;;;;;2092307;28;20032;-73
2023/04/28 03:35:53;;;;;;;15.77;13.90;;;11.40;99.90;;;;;;2093021;28;20518;-73
2023/04/28 03:36:53;;;;;;;14.55;13.02;;;11.40;99.90;;;;;;2093803;28;20020;-73
2023/04/28 03:37:54;;;;;;;15.13;11.93;;;11.40;99.90;;;;;;2092426;28;21649;-73
2023/04/28 03:38:54;;;;;;;12.60;11.40;;;11.40;99.90;;;;;;2091657;28;21608;-73
2023/04/28 03:39:55;;;;;;;12.88;11.68;;;11.40;99.90;;;;;;2090543;28;20082;-72
2023/04/28 03:40:55;;;;;;;12.98;11.18;;;11.40;99.90;;;;;;2094573;28;20207;-73
2023/04/28 03:41:56;;;;;;;13.25;11.93;;;11.40;99.90;;;;;;2091344;28;20369;-72
2023/04/28 03:42:57;;;;;;;18.25;12.38;;;11.40;99.90;;;;;;2094131;28;20036;-72
2023/04/28 03:43:57;;;;;;;16.02;13.38;;;11.40;99.90;;;;;;2093688;28;20044;-73
2023/04/28 03:44:58;;;;;;;16.58;14.13;;;11.40;99.90;;;;;;2092403;28;20083;-73
2023/04/28 03:45:58;;;;;;;14.05;11.80;;;11.40;99.90;;;;;;2092352;28;20400;-72
2023/04/28 03:47:00;;;;;;;14.75;13.20;;;11.40;99.90;;;;;;2093356;28;20075;-73
2023/04/28 03:48:00;;;;;;;18.15;13.55;;;11.40;99.90;;;;;;2093396;28;20468;-72
2023/04/28 03:49:01;;;;;;;14.75;13.15;;;11.40;99.90;;;;;;2090586;28;20086;-73
2023/04/28 03:50:02;;;;;;;15.02;13.52;;;11.40;99.90;;;;;;2091619;28;20087;-72
2023/04/28 03:51:02;;;;;;;16.83;13.98;;;11.40;99.90;;;;;;2095212;28;20403;-72
2023/04/28 03:52:03;;;;;;;17.98;13.52;;;11.50;99.90;;;;;;2092151;28;20025;-72
2023/04/28 03:53:04;;;;;;;18.15;13.60;;;11.40;99.90;;;;;;2092589;28;20024;-73
2023/04/28 03:54:04;;;;;;;16.77;14.27;;;11.50;99.90;;;;;;2093200;28;20031;-73
2023/04/28 03:55:05;;;;;;;16.10;14.50;;;11.50;99.90;;;;;;2092163;28;20027;-73
2023/04/28 03:56:06;;;;;;;14.25;12.80;;;11.50;99.90;;;;;;2094290;28;20021;-73
2023/04/28 03:57:06;;;;;;;17.00;13.35;;;11.50;99.90;;;;;;2093295;28;20025;-72
2023/04/28 03:58:07;;;;;;;16.83;13.68;;;11.50;99.90;;;;;;2093504;28;20017;-73
2023/04/28 03:59:10;;;;;;;15.20;13.55;;;11.50;99.90;;;;;;2094087;28;20411;-73
2023/04/28 04:00:11;;;;;;;20.70;14.07;;;11.50;99.90;;;;;;2093423;28;20049;-73
2023/04/28 04:01:12;;;;;;;15.18;13.57;;;11.40;99.90;;;;;;2094327;28;20417;-73
2023/04/28 04:02:12;;;;;;;18.27;14.45;;;11.40;99.90;;;;;;2094335;28;20098;-73
2023/04/28 04:03:13;;;;;;;16.73;14.18;;;11.40;99.90;;;;;;2094605;28;20032;-73
2023/04/28 04:04:14;;;;;;;15.65;13.27;;;11.50;99.90;;;;;;2093319;28;20029;-73
2023/04/28 04:05:14;;;;;;;18.38;14.13;;;11.50;99.90;;;;;;2093319;28;20425;-73
2023/04/28 04:06:15;;;;;;;18.00;13.80;;;11.50;99.90;;;;;;2094539;28;20028;-73
2023/04/28 04:07:15;;;;;;;15.30;13.27;;;11.40;99.90;;;;;;2092898;28;20096;-73
2023/04/28 04:08:16;;;;;;;14.52;12.23;;;11.50;99.90;;;;;;2090660;28;20029;-73
2023/04/28 04:09:17;;;;;;;15.60;11.82;;;11.40;99.90;;;;;;2091840;28;20408;-73
2023/04/28 04:10:17;;;;;;;16.77;12.02;;;11.40;99.90;;;;;;2092342;28;20047;-73
2023/04/28 04:11:18;;;;;;;13.52;11.20;;;11.40;99.90;;;;;;2091957;28;20040;-73
2023/04/28 04:12:18;;;;;;;12.90;11.15;;;11.40;99.90;;;;;;2091737;28;20085;-73
2023/04/28 04:13:22;;;;;;;13.43;11.43;;;11.40;99.90;;;;;;2091766;28;20021;-72
2023/04/28 04:14:22;;;;;;;17.13;11.30;;;11.40;99.90;;;;;;2091311;28;20020;-72
2023/04/28 04:15:23;;;;;;;14.13;10.82;;;11.40;99.90;;;;;;2092545;28;20021;-73
2023/04/28 04:16:24;;;;;;;16.85;11.98;;;11.40;99.90;;;;;;2092981;28;22047;-73
2023/04/28 04:17:24;;;;;;;14.55;11.35;;;11.40;99.90;;;;;;2091826;28;21166;-73
2023/04/28 04:18:25;;;;;;;19.02;12.20;;;11.40;99.90;;;;;;2095957;28;20025;-73
2023/04/28 04:19:26;;;;;;;13.30;11.57;;;11.40;99.90;;;;;;2093117;28;20020;-73
2023/04/28 04:20:26;;;;;;;14.50;11.40;;;11.40;99.90;;;;;;2055961;28;1037814;-73
2023/04/28 04:21:27;;;;;;;12.80;10.95;;;11.40;99.90;;;;;;2094172;28;20020;-72
2023/04/28 04:22:28;;;;;;;15.95;11.25;;;11.40;99.90;;;;;;2094155;28;20036;-73
2023/04/28 04:23:28;;;;;;;14.43;11.10;;;11.40;99.90;;;;;;2094381;28;20017;-73
2023/04/28 04:24:29;;;;;;;14.77;11.80;;;11.40;99.90;;;;;;2092690;28;20082;-73
2023/04/28 04:25:31;;;;;;;14.25;11.15;;;11.40;99.90;;;;;;2092570;28;20040;-72
2023/04/28 04:26:31;;;;;;;13.00;10.68;;;11.40;99.90;;;;;;2092866;28;20033;-72
2023/04/28 04:27:32;;;;;;;13.65;11.05;;;11.40;99.90;;;;;;2084840;28;20579;-73
2023/04/28 04:28:32;;;;;;;16.35;11.50;;;11.40;99.90;;;;;;2093996;28;20060;-72
2023/04/28 04:29:33;;;;;;;13.57;11.25;;;11.40;99.90;;;;;;2092029;28;20032;-73
2023/04/28 04:30:33;;;;;;;15.32;11.05;;;11.40;99.90;;;;;;2091565;28;20472;-72
2023/04/28 04:31:34;;;;;;;12.60;10.75;;;11.40;99.90;;;;;;2090338;28;20063;-72
2023/04/28 04:32:34;;;;;;;15.10;11.30;;;11.40;99.90;;;;;;2094292;28;20064;-73
2023/04/28 04:33:36;;;;;;;16.00;11.05;;;11.40;99.90;;;;;;2094086;28;20037;-72
2023/04/28 04:34:37;;;;;;;14.32;11.60;;;11.50;99.90;;;;;;2090285;28;20012;-73
2023/04/28 04:35:37;;;;;;;13.23;11.30;;;11.50;99.90;;;;;;2092841;28;20024;-72
2023/04/28 04:36:38;;;;;;;15.07;10.88;;;11.50;99.90;;;;;;2090882;28;20071;-73
2023/04/28 04:37:38;;;;;;;13.10;10.05;;;11.50;99.90;;;;;;2093329;28;20025;-73
2023/04/28 04:38:39;;;;;;;14.07;10.20;;;11.50;99.90;;;;;;2092480;28;20108;-73
2023/04/28 04:39:40;;;;;;;12.68;10.77;;;11.50;99.90;;;;;;2093206;28;20488;-72
2023/04/28 04:40:40;;;;;;;12.73;10.73;;;11.50;99.90;;;;;;2091375;28;20042;-73
2023/04/28 04:41:41;;;;;;;12.18;10.85;;;11.60;99.90;;;;;;2092455;28;20036;-72
2023/04/28 04:42:41;;;;;;;12.90;10.38;;;11.50;99.90;;;;;;2092613;28;20035;-72
2023/04/28 04:43:42;;;;;;;13.63;10.90;;;11.50;99.90;;;;;;2090790;28;20062;-73
2023/04/28 04:44:42;;;;;;;14.88;11.13;;;11.60;99.90;;;;;;2091158;28;20870;-73
2023/04/28 04:45:43;;;;;;;12.80;10.88;;;11.50;99.90;;;;;;2094630;28;20066;-73
2023/04/28 04:46:45;;;;;;;16.33;11.50;;;11.60;99.90;;;;;;2092088;28;20059;-73
2023/04/28 04:47:45;;;;;;;14.30;10.95;;;11.60;99.90;;;;;;2091673;28;20080;-73
2023/04/28 04:48:46;;;;;;;12.25;10.73;;;11.60;99.90;;;;;;2093458;28;20017;-73
2023/04/28 04:49:49;;;;;;;11.30;10.10;;;11.60;99.90;;;;;;2092179;28;20491;-73
2023/04/28 04:50:49;;;;;;;14.82;11.10;;;11.60;99.90;;;;;;2091044;28;20035;-73
2023/04/28 04:51:49;;;;;;;12.52;10.30;;;11.60;99.90;;;;;;2094083;28;20402;-73
2023/04/28 04:52:50;;;;;;;15.77;10.73;;;11.60;99.90;;;;;;2091579;28;20358;-73
2023/04/28 04:53:51;;;;;;;12.52;10.48;;;11.60;99.90;;;;;;2092912;28;20021;-73
2023/04/28 04:54:51;;;;;;;14.25;11.60;;;11.60;99.90;;;;;;2091649;28;20035;-72
2023/04/28 04:55:52;;;;;;;11.65;9.90;;;11.70;99.90;;;;;;2095305;28;20055;-72
2023/04/28 04:56:52;;;;;;;13.20;10.52;;;11.70;99.90;;;;;;2095321;28;20410;-73
2023/04/28 04:57:53;;;;;;;13.18;11.02;;;11.70;99.90;;;;;;2095213;28;20044;-73
2023/04/28 04:58:54;;;;;;;12.80;10.27;;;11.70;99.90;;;;;;2092938;28;20471;-73
2023/04/28 04:59:54;;;;;;;13.88;10.52;;;11.80;99.90;;;;;;2093427;28;20079;-73
2023/04/28 05:00:55;;;;;;;10.88;9.88;;;11.70;99.90;;;;;;2094255;28;20032;-72
2023/04/28 05:01:55;;;;;;;13.57;10.85;;;11.80;99.90;;;;;;2095242;28;20021;-73
2023/04/28 05:02:56;;;;;;;15.63;10.18;;;11.80;99.90;;;;;;2095075;28;20078;-72
2023/04/28 05:03:56;;;;;;;15.43;10.57;;;11.80;99.90;;;;;;2091707;28;20052;-73
2023/04/28 05:04:57;;;;;;;14.15;11.10;;;11.80;99.90;;;;;;2091333;28;20067;-72
2023/04/28 05:05:57;;;;;;;11.57;10.48;;;11.80;99.90;;;;;;2092280;28;20032;-73
2023/04/28 05:06:58;;;;;;;15.32;10.55;;;11.80;99.90;;;;;;2090799;28;20104;-73
2023/04/28 05:07:59;;;;;;;14.65;10.65;;;11.80;99.90;;;;;;2092613;28;20025;-72
2023/04/28 05:08:59;;;;;;;12.88;10.27;;;11.80;99.90;;;;;;2092571;28;20073;-73
2023/04/28 05:10:00;;;;;;;11.98;10.65;;;11.90;99.90;;;;;;2089737;28;20103;-73